ADDS METAR Data INFO
IDs: Format: Raw Decoded Include TAF

Data at: 0434 UTC 21 Nov 2017

KDWX 210415Z AUTO 29003KT 10SM BKN044 BKN075 03/M07 A3012 RMK AO2 T00251066
KDWX 210355Z AUTO 28003KT 10SM OVC044 02/M05 A3013 RMK AO2 T00191050
KDWX 210335Z AUTO 08003KT 10SM BKN048 OVC050 02/M05 A3013 RMK AO2 T00171048
KDWX 210315Z AUTO 01003KT 10SM OVC060 02/M05 A3013 RMK AO2 T00181054
KDWX 210255Z AUTO 24004KT 10SM OVC060 02/M06 A3012 RMK AO2 T00201060
KDWX 210235Z AUTO 27005KT 10SM SCT070 01/M06 A3012 RMK AO2 T00141060
KDWX 210215Z AUTO 26004KT 10SM SCT080 02/M06 A3010 RMK AO2 T00171057
KDWX 210155Z AUTO 00000KT 10SM OVC080 02/M05 A3010 RMK AO2 T00181048
KDWX 210135Z AUTO 29004KT 10SM OVC080 02/M05 A3010 RMK AO2 T00231052
KDWX 210115Z AUTO 28005KT 10SM OVC090 03/M07 A3010 RMK AO2 T00341067
KDWX 210055Z AUTO 27006KT 10SM OVC090 03/M06 A3009 RMK AO2 T00321065
KDWX 210035Z AUTO 31006KT 10SM OVC090 04/M08 A3008 RMK AO2 T00411079
KDWX 210015Z AUTO 21012G19KT 10SM BKN090 05/M10 A3004 RMK AO2 T00501099
KDWX 202355Z AUTO 20016G21KT 10SM BKN090 05/M10 A3002 RMK AO2 T00501098 10157 21158
KDWX 202335Z AUTO 20013G19KT 10SM BKN090 BKN110 05/M10 A3004 RMK AO2 T00481096
KDWX 202315Z AUTO 20005KT 10SM SCT090 BKN120 04/M09 A3005 RMK AO2 T00441087
KDWX 202255Z AUTO 22004KT 10SM SCT090 BKN110 04/M08 A3007 RMK AO2 T00441078
KDWX 202235Z AUTO 24006KT 10SM SCT090 BKN120 05/M08 A3009 RMK AO2 T00461082
KDWX 202215Z AUTO 24006KT 10SM SCT120 05/M08 A3009 RMK AO2 T00451079
KDWX 202155Z AUTO 27004KT 10SM SCT090 04/M07 A3008 RMK AO2 T00441071
KDWX 202135Z AUTO 22004KT 10SM CLR 05/M07 A3008 RMK AO2 T00451069
KDWX 202115Z AUTO 25005KT 10SM CLR 05/M08 A3008 RMK AO2 T00461079
KDWX 202055Z AUTO 26004KT 10SM CLR 05/M09 A3008 RMK AO2 T00491087
KDWX 202035Z AUTO 26005KT 10SM CLR 05/M09 A3009 RMK AO2 T00511094
KDWX 202015Z AUTO 27005KT 10SM CLR 05/M09 A3009 RMK AO2 T00511090
KDWX 201955Z AUTO 24009KT 10SM CLR 05/M08 A3009 RMK AO2 T00501084
KDWX 201935Z AUTO 24006KT 10SM CLR 05/M08 A3010 RMK AO2 T00501082
KDWX 201915Z AUTO 24007KT 10SM CLR 06/M08 A3010 RMK AO2 T00561081
KDWX 201855Z AUTO 23008KT 10SM CLR 05/M08 A3010 RMK AO2 T00531083
KDWX 201835Z AUTO 24010KT 10SM CLR 04/M08 A3011 RMK AO2 T00391080
KDWX 201815Z AUTO 25010KT 10SM CLR 04/M08 A3012 RMK AO2 T00391085
KDWX 201755Z AUTO 24011KT 10SM CLR 03/M08 A3012 RMK AO2 T00271078 10157 21158
KDWX 201735Z AUTO 28007KT 10SM CLR 03/M08 A3011 RMK AO2 T00251077
KDWX 201715Z AUTO 24006KT 10SM SCT100 01/M08 A3010 RMK AO2 T00131080
KDWX 201655Z AUTO 36003KT 10SM BKN100 00/M07 A3010 RMK AO2 T10021066
KDWX 201635Z AUTO 22009KT 10SM BKN100 00/M07 A3009 RMK AO2 T10051071
KDWX 201615Z AUTO 00000KT 10SM SCT100 M01/M08 A3011 RMK AO2 T10101080
KDWX 201555Z AUTO 27004KT 10SM SCT100 M02/M08 A3011 RMK AO2 T10221082
KDWX 201535Z AUTO 00000KT 10SM SCT100 M03/M08 A3011 RMK AO2 T10291085
KDWX 201515Z AUTO 00000KT 10SM SCT100 M03/M08 A3010 RMK AO2 T10291084
KDWX 201455Z AUTO 00000KT 10SM OVC100 M03/M08 A3010 RMK AO2 T10261084
KDWX 201435Z AUTO 32003KT 10SM OVC100 M04/M09 A3010 RMK AO2 T10451088
KDWX 201415Z AUTO 23003KT 10SM OVC110 M04/M09 A3009 RMK AO2 T10451093
KDWX 201355Z AUTO 00000KT 10SM OVC110 M05/M09 A3010 RMK AO2 T10551093
KDWX 201335Z AUTO 00000KT 10SM BKN120 M06/M09 A3009 RMK AO2 T10601095
KDWX 201315Z AUTO 15003KT 10SM BKN120 M05/M10 A3010 RMK AO2 T10481098
KDWX 201255Z AUTO 00000KT 10SM BKN110 M06/M10 A3010 RMK AO2 T10641105
KDWX 201235Z AUTO 00000KT 10SM CLR M06/M11 A3010 RMK AO2 T10591106
KDWX 201215Z AUTO 00000KT 10SM CLR M07/M11 A3010 RMK AO2 T10671108
KDWX 201155Z AUTO 33003KT 10SM CLR M07/M11 A3010 RMK AO2 T10661107 10157 21158
KDWX 201135Z AUTO 00000KT 10SM CLR M06/M11 A3010 RMK AO2 T10621108
KDWX 201115Z AUTO 34003KT 10SM CLR M07/M10 A3010 RMK AO2 T10711105
KDWX 201055Z AUTO 33003KT 10SM CLR M08/M10 A3010 RMK AO2 T10761103
KDWX 201035Z AUTO 00000KT 10SM CLR M07/M10 A3011 RMK AO2 T10701101
KDWX 201015Z AUTO 00000KT 10SM CLR M07/M10 A3011 RMK AO2 T10691100
KDWX 200955Z AUTO 00000KT 10SM CLR M08/M10 A3012 RMK AO2 T10771105
KDWX 200935Z AUTO 00000KT 10SM CLR M08/M11 A3012 RMK AO2 T10821110
KDWX 200910Z AUTO 00000KT 10SM CLR M08/M11 A3012 RMK AO2 T10831114
KDWX 200855Z AUTO 00000KT 10SM CLR M09/M12 A3013 RMK AO2 T10901116
KDWX 200835Z AUTO 06003KT 10SM CLR M10/M12 A3013 RMK AO2 T10981122
KDWX 200815Z AUTO 00000KT 10SM CLR M10/M12 A3013 RMK AO2 T10961121
KDWX 200755Z AUTO 00000KT 10SM CLR M10/M12 A3014 RMK AO2 T10991124
KDWX 200735Z AUTO 00000KT 10SM CLR M09/M12 A3013 RMK AO2 T10951125
KDWX 200715Z AUTO 00000KT 10SM CLR M10/M13 A3013 RMK AO2 T10991127
KDWX 200655Z AUTO 00000KT 10SM CLR M10/M13 A3014 RMK AO2 T11011130 401571158
KDWX 200635Z AUTO 00000KT 10SM CLR M10/M13 A3014 RMK AO2 T11051129
KDWX 200615Z AUTO 00000KT 10SM CLR M10/M13 A3015 RMK AO2 T11011131
KDWX 200555Z AUTO 09005KT 10SM CLR M08/M11 A3014 RMK AO2 T10841115 10157 21158
KDWX 200535Z AUTO 17004KT 10SM CLR M08/M11 A3015 RMK AO2 T10851110
KDWX 200515Z AUTO 00000KT 10SM CLR M09/M12 A3015 RMK AO2 T10931119
KDWX 200455Z AUTO 07004KT 10SM CLR M10/M13 A3014 RMK AO2 T11031127
KDWX 200435Z AUTO 05003KT 10SM CLR M10/M13 A3015 RMK AO2 T10971127
KDWX 200415Z AUTO 00000KT 10SM CLR M10/M12 A3016 RMK AO2 T10971123
KDWX 200355Z AUTO 00000KT 10SM CLR M10/M13 A3018 RMK AO2 T11011128
KDWX 200335Z AUTO 36003KT 10SM CLR M09/M12 A3018 RMK AO2 T10951123
KDWX 200315Z AUTO 00000KT 10SM CLR M09/M12 A3017 RMK AO2 T10891119
KDWX 200255Z AUTO 00000KT 10SM CLR M08/M11 A3018 RMK AO2 T10851113
KDWX 200235Z AUTO 00000KT 10SM CLR M08/M11 A3017 RMK AO2 T10791108
KDWX 200215Z AUTO 06003KT 10SM CLR M08/M11 A3016 RMK AO2 T10801109
KDWX 200155Z AUTO 00000KT 10SM CLR M07/M10 A3016 RMK AO2 T10671102
KDWX 200135Z AUTO 09005KT 10SM CLR M06/M10 A3016 RMK AO2 T10611097
KDWX 200115Z AUTO 10004KT 10SM CLR M07/M10 A3016 RMK AO2 T10661097
KDWX 200055Z AUTO 00000KT 10SM CLR M05/M09 A3015 RMK AO2 T10521095
KDWX 200035Z AUTO 01003KT 10SM CLR M05/M09 A3015 RMK AO2 T10461091
KDWX 200015Z AUTO 02003KT 10SM CLR M05/M10 A3014 RMK AO2 T10491101
KDWX 192355Z AUTO 00000KT 10SM CLR M02/M09 A3015 RMK AO2 T10201094 10157 21158
KDWX 192335Z AUTO 00000KT 10SM CLR 00/M09 A3016 RMK AO2 T10051088
KDWX 192315Z AUTO 32004KT 10SM CLR 00/M08 A3016 RMK AO2 T10031081
KDWX 192255Z AUTO 24004KT 10SM CLR 01/M08 A3016 RMK AO2 T00111078
KDWX 192235Z AUTO 00000KT 10SM CLR 02/M08 A3018 RMK AO2 T00231076
KDWX 192215Z AUTO 26006KT 10SM CLR 03/M08 A3018 RMK AO2 T00311082
KDWX 192155Z AUTO 00000KT 10SM CLR 03/M07 A3018 RMK AO2 T00281075
KDWX 192135Z AUTO 25004KT 10SM CLR 03/M08 A3018 RMK AO2 T00261079
KDWX 192115Z AUTO 23009KT 10SM CLR 03/M07 A3019 RMK AO2 T00291075
KDWX 192055Z AUTO 23009KT 10SM CLR 03/M06 A3020 RMK AO2 T00261065
KDWX 192035Z AUTO 23008KT 10SM CLR 02/M06 A3021 RMK AO2 T00151058
KDWX 192015Z AUTO 30003KT 10SM CLR 00/M05 A3023 RMK AO2 T00001048
KDWX 191955Z AUTO 34003KT 10SM CLR 00/M06 A3023 RMK AO2 T10041059
KDWX 191935Z AUTO 35003KT 10SM CLR M01/M07 A3024 RMK AO2 T10071067
KDWX 191915Z AUTO 00000KT 10SM CLR M01/M07 A3025 RMK AO2 T10091069
KDWX 191855Z AUTO 33004KT 10SM CLR M01/M07 A3026 RMK AO2 T10141075
KDWX 191835Z AUTO 00000KT 10SM CLR M02/M09 A3028 RMK AO2 T10241091
KDWX 191815Z AUTO 00000KT 10SM CLR M03/M09 A3028 RMK AO2 T10281088
KDWX 191755Z AUTO 00000KT 10SM CLR M04/M09 A3029 RMK AO2 T10401091 10157 21158
KDWX 191735Z AUTO 32004KT 10SM CLR M05/M10 A3030 RMK AO2 T10501099
KDWX 191715Z AUTO 00000KT 10SM CLR M06/M10 A3030 RMK AO2 T10601104
KDWX 191655Z AUTO 30003KT 10SM CLR M07/M11 A3030 RMK AO2 T10701110
KDWX 191635Z AUTO 00000KT 10SM CLR M08/M12 A3030 RMK AO2 T10811119